sensor_id;sensor_type;location;lat;lon;timestamp;temperature;humidity
68217;DHT22;55037;52.354;4.992;2023-07-28T00:01:19;20.60;90.00
68217;DHT22;55037;52.354;4.992;2023-07-28T00:03:47;20.70;90.00
68217;DHT22;55037;52.354;4.992;2023-07-28T00:06:14;20.60;90.00
68217;DHT22;55037;52.354;4.992;2023-07-28T00:08:41;20.60;90.10
68217;DHT22;55037;52.354;4.992;2023-07-28T00:11:13;20.70;90.10
68217;DHT22;55037;52.354;4.992;2023-07-28T00:13:41;20.70;90.10
68217;DHT22;55037;52.354;4.992;2023-07-28T00:16:13;20.70;90.00
68217;DHT22;55037;52.354;4.992;2023-07-28T00:18:41;20.70;90.00
68217;DHT22;55037;52.354;4.992;2023-07-28T00:21:08;20.70;90.00
68217;DHT22;55037;52.354;4.992;2023-07-28T00:23:36;20.70;90.00
68217;DHT22;55037;52.354;4.992;2023-07-28T00:26:03;20.70;90.10
68217;DHT22;55037;52.354;4.992;2023-07-28T00:28:30;20.70;90.10
68217;DHT22;55037;52.354;4.992;2023-07-28T00:30:57;20.70;90.00
68217;DHT22;55037;52.354;4.992;2023-07-28T00:33:25;20.70;90.00
68217;DHT22;55037;52.354;4.992;2023-07-28T00:35:52;20.70;90.10
68217;DHT22;55037;52.354;4.992;2023-07-28T00:38:19;20.70;90.10
68217;DHT22;55037;52.354;4.992;2023-07-28T00:40:47;20.80;90.00
68217;DHT22;55037;52.354;4.992;2023-07-28T00:43:14;20.80;90.10
68217;DHT22;55037;52.354;4.992;2023-07-28T00:45:42;20.80;90.00
68217;DHT22;55037;52.354;4.992;2023-07-28T00:48:14;20.80;90.00
68217;DHT22;55037;52.354;4.992;2023-07-28T00:50:45;20.80;90.10
68217;DHT22;55037;52.354;4.992;2023-07-28T00:53:12;20.80;90.10
68217;DHT22;55037;52.354;4.992;2023-07-28T00:55:41;20.80;90.10
68217;DHT22;55037;52.354;4.992;2023-07-28T00:58:08;20.80;90.10
68217;DHT22;55037;52.354;4.992;2023-07-28T01:00:36;20.80;90.00
68217;DHT22;55037;52.354;4.992;2023-07-28T01:03:03;20.90;90.40
68217;DHT22;55037;52.354;4.992;2023-07-28T01:06:07;20.80;90.00
68217;DHT22;55037;52.354;4.992;2023-07-28T01:09:04;20.80;90.20
68217;DHT22;55037;52.354;4.992;2023-07-28T01:11:33;20.90;90.10
68217;DHT22;55037;52.354;4.992;2023-07-28T01:14:02;20.90;90.00
68217;DHT22;55037;52.354;4.992;2023-07-28T01:16:29;20.90;90.10
68217;DHT22;55037;52.354;4.992;2023-07-28T01:18:56;20.90;90.10
68217;DHT22;55037;52.354;4.992;2023-07-28T01:21:30;20.90;90.10
68217;DHT22;55037;52.354;4.992;2023-07-28T01:26:36;20.90;90.10
68217;DHT22;55037;52.354;4.992;2023-07-28T01:29:05;20.90;90.10
68217;DHT22;55037;52.354;4.992;2023-07-28T01:31:32;21.00;90.30
68217;DHT22;55037;52.354;4.992;2023-07-28T01:34:00;21.00;90.10
68217;DHT22;55037;52.354;4.992;2023-07-28T01:36:27;21.00;90.10
68217;DHT22;55037;52.354;4.992;2023-07-28T01:38:55;21.00;90.00
68217;DHT22;55037;52.354;4.992;2023-07-28T01:41:22;21.00;90.00
68217;DHT22;55037;52.354;4.992;2023-07-28T01:43:49;21.00;90.00
68217;DHT22;55037;52.354;4.992;2023-07-28T01:46:17;21.00;90.10
68217;DHT22;55037;52.354;4.992;2023-07-28T01:48:44;21.00;90.00
68217;DHT22;55037;52.354;4.992;2023-07-28T01:51:11;20.90;90.20
68217;DHT22;55037;52.354;4.992;2023-07-28T01:53:38;20.90;90.20
68217;DHT22;55037;52.354;4.992;2023-07-28T01:56:06;21.00;90.20
68217;DHT22;55037;52.354;4.992;2023-07-28T01:58:33;21.00;90.10
68217;DHT22;55037;52.354;4.992;2023-07-28T02:01:00;21.00;90.10
68217;DHT22;55037;52.354;4.992;2023-07-28T02:03:28;21.00;90.10
68217;DHT22;55037;52.354;4.992;2023-07-28T02:05:55;21.00;90.10
68217;DHT22;55037;52.354;4.992;2023-07-28T02:08:22;21.10;90.10
68217;DHT22;55037;52.354;4.992;2023-07-28T02:10:53;21.10;90.20
68217;DHT22;55037;52.354;4.992;2023-07-28T02:13:20;21.10;90.10
68217;DHT22;55037;52.354;4.992;2023-07-28T02:15:48;21.00;90.00
68217;DHT22;55037;52.354;4.992;2023-07-28T02:18:15;21.00;90.00
68217;DHT22;55037;52.354;4.992;2023-07-28T02:20:42;21.00;90.10
68217;DHT22;55037;52.354;4.992;2023-07-28T02:23:10;21.00;90.10
68217;DHT22;55037;52.354;4.992;2023-07-28T02:25:39;21.00;90.10
68217;DHT22;55037;52.354;4.992;2023-07-28T02:28:09;21.10;90.10
68217;DHT22;55037;52.354;4.992;2023-07-28T02:30:37;21.10;90.20
68217;DHT22;55037;52.354;4.992;2023-07-28T02:33:05;21.10;90.20
68217;DHT22;55037;52.354;4.992;2023-07-28T02:35:33;21.10;90.10
68217;DHT22;55037;52.354;4.992;2023-07-28T02:38:00;21.10;90.10
68217;DHT22;55037;52.354;4.992;2023-07-28T02:40:28;21.10;90.10
68217;DHT22;55037;52.354;4.992;2023-07-28T02:42:55;21.10;90.10
68217;DHT22;55037;52.354;4.992;2023-07-28T02:45:24;21.10;90.10
68217;DHT22;55037;52.354;4.992;2023-07-28T02:47:52;21.10;90.10
68217;DHT22;55037;52.354;4.992;2023-07-28T02:50:19;21.10;90.10
68217;DHT22;55037;52.354;4.992;2023-07-28T02:52:46;21.20;90.20
68217;DHT22;55037;52.354;4.992;2023-07-28T02:55:14;21.10;90.10
68217;DHT22;55037;52.354;4.992;2023-07-28T02:57:41;21.20;90.20
68217;DHT22;55037;52.354;4.992;2023-07-28T03:00:09;21.10;90.20
68217;DHT22;55037;52.354;4.992;2023-07-28T03:02:38;21.20;90.20
68217;DHT22;55037;52.354;4.992;2023-07-28T03:05:05;21.20;90.10
68217;DHT22;55037;52.354;4.992;2023-07-28T03:08:06;21.10;90.10
68217;DHT22;55037;52.354;4.992;2023-07-28T03:10:33;21.10;90.20
68217;DHT22;55037;52.354;4.992;2023-07-28T03:13:00;21.10;90.10
68217;DHT22;55037;52.354;4.992;2023-07-28T03:15:28;21.20;90.20
68217;DHT22;55037;52.354;4.992;2023-07-28T03:17:55;21.10;90.00
68217;DHT22;55037;52.354;4.992;2023-07-28T03:20:23;21.10;90.20
68217;DHT22;55037;52.354;4.992;2023-07-28T03:22:50;21.10;90.10
68217;DHT22;55037;52.354;4.992;2023-07-28T03:25:17;21.20;90.20
68217;DHT22;55037;52.354;4.992;2023-07-28T03:27:45;21.20;90.10
68217;DHT22;55037;52.354;4.992;2023-07-28T03:30:12;21.10;90.10
68217;DHT22;55037;52.354;4.992;2023-07-28T03:32:40;21.20;90.00
68217;DHT22;55037;52.354;4.992;2023-07-28T03:35:08;21.10;90.20
68217;DHT22;55037;52.354;4.992;2023-07-28T03:37:41;21.20;90.10
68217;DHT22;55037;52.354;4.992;2023-07-28T03:40:08;21.10;90.10
68217;DHT22;55037;52.354;4.992;2023-07-28T03:42:45;21.20;90.10
68217;DHT22;55037;52.354;4.992;2023-07-28T03:45:12;21.20;90.00
68217;DHT22;55037;52.354;4.992;2023-07-28T03:47:39;21.10;90.00
68217;DHT22;55037;52.354;4.992;2023-07-28T03:50:07;21.10;90.10
68217;DHT22;55037;52.354;4.992;2023-07-28T03:52:34;21.20;90.10
68217;DHT22;55037;52.354;4.992;2023-07-28T03:55:02;21.20;90.10
68217;DHT22;55037;52.354;4.992;2023-07-28T03:57:30;21.20;90.10
68217;DHT22;55037;52.354;4.992;2023-07-28T03:59:57;21.20;90.00
68217;DHT22;55037;52.354;4.992;2023-07-28T04:02:27;21.20;90.00
68217;DHT22;55037;52.354;4.992;2023-07-28T04:04:56;21.20;90.00
68217;DHT22;55037;52.354;4.992;2023-07-28T04:07:23;21.30;90.00
68217;DHT22;55037;52.354;4.992;2023-07-28T04:09:50;21.20;90.00
68217;DHT22;55037;52.354;4.992;2023-07-28T04:12:17;21.30;89.90
68217;DHT22;55037;52.354;4.992;2023-07-28T04:14:45;21.30;89.90
68217;DHT22;55037;52.354;4.992;2023-07-28T04:17:12;21.20;90.00
68217;DHT22;55037;52.354;4.992;2023-07-28T04:19:39;21.30;90.00
68217;DHT22;55037;52.354;4.992;2023-07-28T04:22:07;21.30;89.80
68217;DHT22;55037;52.354;4.992;2023-07-28T04:24:35;21.40;89.80
68217;DHT22;55037;52.354;4.992;2023-07-28T04:27:02;21.40;89.90
68217;DHT22;55037;52.354;4.992;2023-07-28T04:29:31;21.40;89.60
68217;DHT22;55037;52.354;4.992;2023-07-28T04:31:59;21.40;89.50
68217;DHT22;55037;52.354;4.992;2023-07-28T04:34:33;21.40;89.50
68217;DHT22;55037;52.354;4.992;2023-07-28T04:37:11;21.50;89.40
68217;DHT22;55037;52.354;4.992;2023-07-28T04:39:55;21.40;89.40
68217;DHT22;55037;52.354;4.992;2023-07-28T04:42:22;21.50;89.40
68217;DHT22;55037;52.354;4.992;2023-07-28T04:44:50;21.60;89.40
68217;DHT22;55037;52.354;4.992;2023-07-28T04:47:18;21.50;89.20
68217;DHT22;55037;52.354;4.992;2023-07-28T04:49:45;21.50;89.20
68217;DHT22;55037;52.354;4.992;2023-07-28T04:52:45;21.60;89.20
68217;DHT22;55037;52.354;4.992;2023-07-28T04:55:38;21.60;89.00
68217;DHT22;55037;52.354;4.992;2023-07-28T04:58:05;21.60;89.10
68217;DHT22;55037;52.354;4.992;2023-07-28T05:00:44;21.60;89.20
68217;DHT22;55037;52.354;4.992;2023-07-28T05:03:12;21.60;89.00
68217;DHT22;55037;52.354;4.992;2023-07-28T05:05:46;21.60;88.90
68217;DHT22;55037;52.354;4.992;2023-07-28T05:08:14;21.60;89.00
68217;DHT22;55037;52.354;4.992;2023-07-28T05:10:42;21.70;88.80
68217;DHT22;55037;52.354;4.992;2023-07-28T05:13:10;21.70;89.10
68217;DHT22;55037;52.354;4.992;2023-07-28T05:15:41;21.80;88.80
68217;DHT22;55037;52.354;4.992;2023-07-28T05:18:14;21.80;88.30
68217;DHT22;55037;52.354;4.992;2023-07-28T05:20:58;21.80;88.30
68217;DHT22;55037;52.354;4.992;2023-07-28T05:23:25;21.80;88.30
68217;DHT22;55037;52.354;4.992;2023-07-28T05:25:52;21.90;88.60
68217;DHT22;55037;52.354;4.992;2023-07-28T05:28:19;21.90;88.30
68217;DHT22;55037;52.354;4.992;2023-07-28T05:30:50;21.90;88.10
68217;DHT22;55037;52.354;4.992;2023-07-28T05:33:18;21.90;87.80
68217;DHT22;55037;52.354;4.992;2023-07-28T05:35:48;21.80;87.80
68217;DHT22;55037;52.354;4.992;2023-07-28T05:38:15;21.70;87.80
68217;DHT22;55037;52.354;4.992;2023-07-28T05:40:42;21.70;88.10
68217;DHT22;55037;52.354;4.992;2023-07-28T05:43:10;21.70;87.80
68217;DHT22;55037;52.354;4.992;2023-07-28T05:45:37;21.60;87.80
68217;DHT22;55037;52.354;4.992;2023-07-28T05:48:05;21.60;87.90
68217;DHT22;55037;52.354;4.992;2023-07-28T05:50:38;21.70;87.90
68217;DHT22;55037;52.354;4.992;2023-07-28T05:53:05;21.60;87.70
68217;DHT22;55037;52.354;4.992;2023-07-28T05:55:33;21.70;88.00
68217;DHT22;55037;52.354;4.992;2023-07-28T05:58:00;21.70;87.90
68217;DHT22;55037;52.354;4.992;2023-07-28T06:00:27;21.80;87.60
68217;DHT22;55037;52.354;4.992;2023-07-28T06:02:55;21.80;87.40
68217;DHT22;55037;52.354;4.992;2023-07-28T06:05:46;21.80;87.50
68217;DHT22;55037;52.354;4.992;2023-07-28T06:08:13;21.80;87.90
68217;DHT22;55037;52.354;4.992;2023-07-28T06:10:41;22.00;88.10
68217;DHT22;55037;52.354;4.992;2023-07-28T06:13:08;22.10;87.40
68217;DHT22;55037;52.354;4.992;2023-07-28T06:15:39;22.10;86.80
68217;DHT22;55037;52.354;4.992;2023-07-28T06:18:06;22.00;86.40
68217;DHT22;55037;52.354;4.992;2023-07-28T06:20:34;21.90;86.50
68217;DHT22;55037;52.354;4.992;2023-07-28T06:23:01;21.80;86.90
68217;DHT22;55037;52.354;4.992;2023-07-28T06:25:29;21.80;87.10
68217;DHT22;55037;52.354;4.992;2023-07-28T06:27:56;21.80;87.20
68217;DHT22;55037;52.354;4.992;2023-07-28T06:30:24;21.90;87.40
68217;DHT22;55037;52.354;4.992;2023-07-28T06:32:51;21.90;87.40
68217;DHT22;55037;52.354;4.992;2023-07-28T06:35:19;22.00;87.10
68217;DHT22;55037;52.354;4.992;2023-07-28T06:37:46;22.10;86.60
68217;DHT22;55037;52.354;4.992;2023-07-28T06:40:14;22.10;86.10
68217;DHT22;55037;52.354;4.992;2023-07-28T06:42:41;22.10;86.20
68217;DHT22;55037;52.354;4.992;2023-07-28T06:45:09;22.10;86.00
68217;DHT22;55037;52.354;4.992;2023-07-28T06:47:36;22.10;86.10
68217;DHT22;55037;52.354;4.992;2023-07-28T06:50:05;22.10;86.10
68217;DHT22;55037;52.354;4.992;2023-07-28T06:52:32;22.10;85.80
68217;DHT22;55037;52.354;4.992;2023-07-28T06:55:00;22.10;85.90
68217;DHT22;55037;52.354;4.992;2023-07-28T06:57:27;22.10;85.80
68217;DHT22;55037;52.354;4.992;2023-07-28T06:59:54;22.10;85.70
68217;DHT22;55037;52.354;4.992;2023-07-28T07:02:22;22.10;85.90
68217;DHT22;55037;52.354;4.992;2023-07-28T07:04:49;22.10;86.00
68217;DHT22;55037;52.354;4.992;2023-07-28T07:07:17;22.20;85.60
68217;DHT22;55037;52.354;4.992;2023-07-28T07:09:44;22.20;85.30
68217;DHT22;55037;52.354;4.992;2023-07-28T07:12:12;22.20;85.20
68217;DHT22;55037;52.354;4.992;2023-07-28T07:14:39;22.20;84.90
68217;DHT22;55037;52.354;4.992;2023-07-28T07:17:07;22.20;84.50
68217;DHT22;55037;52.354;4.992;2023-07-28T07:19:35;22.10;84.70
68217;DHT22;55037;52.354;4.992;2023-07-28T07:22:02;22.10;85.10
68217;DHT22;55037;52.354;4.992;2023-07-28T07:24:29;22.10;85.10
68217;DHT22;55037;52.354;4.992;2023-07-28T07:26:57;22.10;85.00
68217;DHT22;55037;52.354;4.992;2023-07-28T07:29:24;22.10;85.20
68217;DHT22;55037;52.354;4.992;2023-07-28T07:31:51;22.10;85.20
68217;DHT22;55037;52.354;4.992;2023-07-28T07:34:23;22.20;85.00
68217;DHT22;55037;52.354;4.992;2023-07-28T07:36:50;22.20;85.00
68217;DHT22;55037;52.354;4.992;2023-07-28T07:39:18;22.20;85.20
68217;DHT22;55037;52.354;4.992;2023-07-28T07:41:45;22.40;84.40
68217;DHT22;55037;52.354;4.992;2023-07-28T07:44:12;22.30;84.30
68217;DHT22;55037;52.354;4.992;2023-07-28T07:46:40;22.40;84.10
68217;DHT22;55037;52.354;4.992;2023-07-28T07:49:10;22.40;84.00
68217;DHT22;55037;52.354;4.992;2023-07-28T07:51:37;22.50;83.80
68217;DHT22;55037;52.354;4.992;2023-07-28T07:54:04;22.50;83.90
68217;DHT22;55037;52.354;4.992;2023-07-28T07:56:32;22.60;83.70
68217;DHT22;55037;52.354;4.992;2023-07-28T07:58:59;22.70;83.40
68217;DHT22;55037;52.354;4.992;2023-07-28T08:01:26;22.70;82.90
68217;DHT22;55037;52.354;4.992;2023-07-28T08:03:54;22.70;82.40
68217;DHT22;55037;52.354;4.992;2023-07-28T08:06:21;22.60;82.80
68217;DHT22;55037;52.354;4.992;2023-07-28T08:08:49;22.60;83.30
68217;DHT22;55037;52.354;4.992;2023-07-28T08:11:18;22.60;82.30
68217;DHT22;55037;52.354;4.992;2023-07-28T08:13:45;22.60;82.30
68217;DHT22;55037;52.354;4.992;2023-07-28T08:16:15;22.50;82.30
68217;DHT22;55037;52.354;4.992;2023-07-28T08:18:42;22.60;82.40
68217;DHT22;55037;52.354;4.992;2023-07-28T08:21:10;22.60;82.50
68217;DHT22;55037;52.354;4.992;2023-07-28T08:23:37;22.70;82.70
68217;DHT22;55037;52.354;4.992;2023-07-28T08:26:04;22.90;81.90
68217;DHT22;55037;52.354;4.992;2023-07-28T08:28:32;23.00;81.40
68217;DHT22;55037;52.354;4.992;2023-07-28T08:31:00;23.00;81.20
68217;DHT22;55037;52.354;4.992;2023-07-28T08:33:28;23.00;81.40
68217;DHT22;55037;52.354;4.992;2023-07-28T08:35:55;23.10;80.70
68217;DHT22;55037;52.354;4.992;2023-07-28T08:38:22;23.20;81.00
68217;DHT22;55037;52.354;4.992;2023-07-28T08:40:50;23.40;80.50
68217;DHT22;55037;52.354;4.992;2023-07-28T08:43:17;23.50;79.20
68217;DHT22;55037;52.354;4.992;2023-07-28T08:45:44;23.40;79.00
68217;DHT22;55037;52.354;4.992;2023-07-28T08:48:12;23.40;78.90
68217;DHT22;55037;52.354;4.992;2023-07-28T08:50:39;23.30;78.70
68217;DHT22;55037;52.354;4.992;2023-07-28T08:53:07;23.20;78.90
68217;DHT22;55037;52.354;4.992;2023-07-28T08:55:34;23.10;78.90
68217;DHT22;55037;52.354;4.992;2023-07-28T08:58:17;23.00;78.90
68217;DHT22;55037;52.354;4.992;2023-07-28T09:00:50;23.00;79.50
68217;DHT22;55037;52.354;4.992;2023-07-28T09:03:18;23.10;80.00
68217;DHT22;55037;52.354;4.992;2023-07-28T09:05:46;23.30;80.10
68217;DHT22;55037;52.354;4.992;2023-07-28T09:08:15;23.50;79.50
68217;DHT22;55037;52.354;4.992;2023-07-28T09:10:47;23.70;79.20
68217;DHT22;55037;52.354;4.992;2023-07-28T09:13:18;23.80;77.90
68217;DHT22;55037;52.354;4.992;2023-07-28T09:15:47;23.70;77.40
68217;DHT22;55037;52.354;4.992;2023-07-28T09:18:17;23.60;77.70
68217;DHT22;55037;52.354;4.992;2023-07-28T09:20:44;23.60;77.90
68217;DHT22;55037;52.354;4.992;2023-07-28T09:23:14;23.90;78.50
68217;DHT22;55037;52.354;4.992;2023-07-28T09:25:42;24.40;78.60
68217;DHT22;55037;52.354;4.992;2023-07-28T09:28:10;25.10;77.70
68217;DHT22;55037;52.354;4.992;2023-07-28T09:30:46;26.00;76.30
68217;DHT22;55037;52.354;4.992;2023-07-28T09:33:13;26.80;73.90
68217;DHT22;55037;52.354;4.992;2023-07-28T09:35:49;27.30;71.10
68217;DHT22;55037;52.354;4.992;2023-07-28T09:38:18;27.60;70.70
68217;DHT22;55037;52.354;4.992;2023-07-28T09:40:45;28.60;65.60
68217;DHT22;55037;52.354;4.992;2023-07-28T09:43:13;28.90;64.50
68217;DHT22;55037;52.354;4.992;2023-07-28T09:45:42;29.30;60.50
68217;DHT22;55037;52.354;4.992;2023-07-28T09:48:11;28.70;60.10
68217;DHT22;55037;52.354;4.992;2023-07-28T09:50:42;28.30;61.90
68217;DHT22;55037;52.354;4.992;2023-07-28T09:53:10;28.30;61.20
68217;DHT22;55037;52.354;4.992;2023-07-28T09:55:40;28.00;60.40
68217;DHT22;55037;52.354;4.992;2023-07-28T09:58:10;27.80;62.50
68217;DHT22;55037;52.354;4.992;2023-07-28T10:00:41;28.10;60.60
68217;DHT22;55037;52.354;4.992;2023-07-28T10:03:09;27.80;61.90
68217;DHT22;55037;52.354;4.992;2023-07-28T10:05:37;28.00;61.10
68217;DHT22;55037;52.354;4.992;2023-07-28T10:08:05;28.10;60.00
68217;DHT22;55037;52.354;4.992;2023-07-28T10:10:33;28.20;59.10
68217;DHT22;55037;52.354;4.992;2023-07-28T10:13:01;28.80;59.50
68217;DHT22;55037;52.354;4.992;2023-07-28T10:15:31;29.50;55.20
68217;DHT22;55037;52.354;4.992;2023-07-28T10:17:59;29.40;53.60
68217;DHT22;55037;52.354;4.992;2023-07-28T10:20:47;29.40;55.20
68217;DHT22;55037;52.354;4.992;2023-07-28T10:23:17;29.40;53.50
68217;DHT22;55037;52.354;4.992;2023-07-28T10:25:47;29.20;54.30
68217;DHT22;55037;52.354;4.992;2023-07-28T10:28:35;28.90;55.30
68217;DHT22;55037;52.354;4.992;2023-07-28T10:31:07;28.90;55.30
68217;DHT22;55037;52.354;4.992;2023-07-28T10:33:36;28.90;54.10
68217;DHT22;55037;52.354;4.992;2023-07-28T10:41:26;28.80;54.80
68217;DHT22;55037;52.354;4.992;2023-07-28T10:43:54;28.90;53.10
68217;DHT22;55037;52.354;4.992;2023-07-28T10:46:24;28.60;54.10
68217;DHT22;55037;52.354;4.992;2023-07-28T10:48:54;28.40;55.10
68217;DHT22;55037;52.354;4.992;2023-07-28T10:51:26;28.30;56.00
68217;DHT22;55037;52.354;4.992;2023-07-28T10:53:56;28.90;54.80
68217;DHT22;55037;52.354;4.992;2023-07-28T10:56:25;29.60;53.90
68217;DHT22;55037;52.354;4.992;2023-07-28T10:59:00;31.00;49.80
68217;DHT22;55037;52.354;4.992;2023-07-28T11:01:35;31.10;47.50
68217;DHT22;55037;52.354;4.992;2023-07-28T11:04:15;30.50;48.00
68217;DHT22;55037;52.354;4.992;2023-07-28T11:06:48;29.70;49.10
68217;DHT22;55037;52.354;4.992;2023-07-28T11:09:19;28.70;50.90
68217;DHT22;55037;52.354;4.992;2023-07-28T11:11:46;28.00;54.00
68217;DHT22;55037;52.354;4.992;2023-07-28T11:14:16;27.50;55.40
68217;DHT22;55037;52.354;4.992;2023-07-28T11:16:45;27.10;56.90
68217;DHT22;55037;52.354;4.992;2023-07-28T11:19:14;26.80;59.10
68217;DHT22;55037;52.354;4.992;2023-07-28T11:21:43;26.90;60.00
68217;DHT22;55037;52.354;4.992;2023-07-28T11:24:11;27.30;58.80
68217;DHT22;55037;52.354;4.992;2023-07-28T11:26:41;28.20;56.80
68217;DHT22;55037;52.354;4.992;2023-07-28T11:29:08;29.30;54.40
68217;DHT22;55037;52.354;4.992;2023-07-28T11:31:36;29.90;50.50
68217;DHT22;55037;52.354;4.992;2023-07-28T11:34:13;29.60;50.10
68217;DHT22;55037;52.354;4.992;2023-07-28T11:36:41;29.00;51.00
68217;DHT22;55037;52.354;4.992;2023-07-28T11:39:09;28.50;52.50
68217;DHT22;55037;52.354;4.992;2023-07-28T11:41:38;28.00;53.60
68217;DHT22;55037;52.354;4.992;2023-07-28T11:44:07;27.80;54.80
68217;DHT22;55037;52.354;4.992;2023-07-28T11:46:39;27.70;56.20
68217;DHT22;55037;52.354;4.992;2023-07-28T11:51:45;28.60;55.80
68217;DHT22;55037;52.354;4.992;2023-07-28T11:54:17;29.10;53.10
68217;DHT22;55037;52.354;4.992;2023-07-28T11:56:50;29.40;51.30
68217;DHT22;55037;52.354;4.992;2023-07-28T11:59:19;29.20;50.70
68217;DHT22;55037;52.354;4.992;2023-07-28T12:01:58;29.00;51.00
68217;DHT22;55037;52.354;4.992;2023-07-28T12:04:30;28.70;51.00
68217;DHT22;55037;52.354;4.992;2023-07-28T12:07:16;28.50;51.30
68217;DHT22;55037;52.354;4.992;2023-07-28T12:12:28;28.30;52.60
68217;DHT22;55037;52.354;4.992;2023-07-28T12:15:01;28.40;52.10
68217;DHT22;55037;52.354;4.992;2023-07-28T12:18:11;28.80;50.80
68217;DHT22;55037;52.354;4.992;2023-07-28T12:23:19;29.60;48.40
68217;DHT22;55037;52.354;4.992;2023-07-28T12:25:50;29.30;48.80
68217;DHT22;55037;52.354;4.992;2023-07-28T12:28:18;29.10;49.90
68217;DHT22;55037;52.354;4.992;2023-07-28T12:30:46;29.30;49.70
68217;DHT22;55037;52.354;4.992;2023-07-28T12:33:16;30.40;48.10
68217;DHT22;55037;52.354;4.992;2023-07-28T12:35:47;31.20;45.20
68217;DHT22;55037;52.354;4.992;2023-07-28T12:38:17;32.30;42.80
68217;DHT22;55037;52.354;4.992;2023-07-28T12:40:47;32.40;42.60
68217;DHT22;55037;52.354;4.992;2023-07-28T12:43:18;31.90;41.80
68217;DHT22;55037;52.354;4.992;2023-07-28T12:45:48;31.90;42.80
68217;DHT22;55037;52.354;4.992;2023-07-28T12:48:18;32.20;42.80
68217;DHT22;55037;52.354;4.992;2023-07-28T12:50:48;33.30;40.00
68217;DHT22;55037;52.354;4.992;2023-07-28T12:53:16;33.10;39.30
68217;DHT22;55037;52.354;4.992;2023-07-28T12:55:49;32.70;39.50
68217;DHT22;55037;52.354;4.992;2023-07-28T12:58:20;32.10;40.70
68217;DHT22;55037;52.354;4.992;2023-07-28T13:00:50;32.20;41.00
68217;DHT22;55037;52.354;4.992;2023-07-28T13:03:20;32.60;40.50
68217;DHT22;55037;52.354;4.992;2023-07-28T13:05:48;32.90;39.50
68217;DHT22;55037;52.354;4.992;2023-07-28T13:08:16;32.60;38.70
68217;DHT22;55037;52.354;4.992;2023-07-28T13:10:43;32.50;39.70
68217;DHT22;55037;52.354;4.992;2023-07-28T13:13:13;32.10;39.90
68217;DHT22;55037;52.354;4.992;2023-07-28T13:15:41;32.10;40.40
68217;DHT22;55037;52.354;4.992;2023-07-28T13:18:09;31.60;39.90
68217;DHT22;55037;52.354;4.992;2023-07-28T13:20:36;31.00;40.70
68217;DHT22;55037;52.354;4.992;2023-07-28T13:23:03;30.60;42.90
68217;DHT22;55037;52.354;4.992;2023-07-28T13:25:31;31.20;42.00
68217;DHT22;55037;52.354;4.992;2023-07-28T13:27:58;32.10;41.10
68217;DHT22;55037;52.354;4.992;2023-07-28T13:30:25;32.50;39.60
68217;DHT22;55037;52.354;4.992;2023-07-28T13:32:56;32.00;39.50
68217;DHT22;55037;52.354;4.992;2023-07-28T13:35:26;31.40;40.40
68217;DHT22;55037;52.354;4.992;2023-07-28T13:37:53;31.30;41.30
68217;DHT22;55037;52.354;4.992;2023-07-28T13:40:20;31.20;40.70
68217;DHT22;55037;52.354;4.992;2023-07-28T13:42:47;30.50;41.60
68217;DHT22;55037;52.354;4.992;2023-07-28T13:45:15;30.00;42.90
68217;DHT22;55037;52.354;4.992;2023-07-28T13:47:42;29.90;43.90
68217;DHT22;55037;52.354;4.992;2023-07-28T13:50:10;30.20;43.40
68217;DHT22;55037;52.354;4.992;2023-07-28T13:52:37;30.10;42.90
68217;DHT22;55037;52.354;4.992;2023-07-28T13:55:05;29.80;43.60
68217;DHT22;55037;52.354;4.992;2023-07-28T13:57:35;30.40;44.30
68217;DHT22;55037;52.354;4.992;2023-07-28T14:00:03;31.70;41.60
68217;DHT22;55037;52.354;4.992;2023-07-28T14:02:31;32.70;39.70
68217;DHT22;55037;52.354;4.992;2023-07-28T14:04:58;33.10;37.90
68217;DHT22;55037;52.354;4.992;2023-07-28T14:07:25;32.60;37.60
68217;DHT22;55037;52.354;4.992;2023-07-28T14:09:53;32.70;37.50
68217;DHT22;55037;52.354;4.992;2023-07-28T14:12:20;33.00;37.10
68217;DHT22;55037;52.354;4.992;2023-07-28T14:14:48;33.00;36.60
68217;DHT22;55037;52.354;4.992;2023-07-28T14:17:16;33.00;37.20
68217;DHT22;55037;52.354;4.992;2023-07-28T14:19:44;32.40;37.50
68217;DHT22;55037;52.354;4.992;2023-07-28T14:22:12;32.70;38.20
68217;DHT22;55037;52.354;4.992;2023-07-28T14:24:40;33.00;36.70
68217;DHT22;55037;52.354;4.992;2023-07-28T14:27:07;32.30;36.80
68217;DHT22;55037;52.354;4.992;2023-07-28T14:29:34;31.40;38.50
68217;DHT22;55037;52.354;4.992;2023-07-28T14:32:01;31.30;39.50
68217;DHT22;55037;52.354;4.992;2023-07-28T14:34:29;31.20;39.30
68217;DHT22;55037;52.354;4.992;2023-07-28T14:36:56;31.00;39.20
68217;DHT22;55037;52.354;4.992;2023-07-28T14:39:23;30.40;40.00
68217;DHT22;55037;52.354;4.992;2023-07-28T14:41:50;29.90;41.40
68217;DHT22;55037;52.354;4.992;2023-07-28T14:44:18;29.50;41.80
68217;DHT22;55037;52.354;4.992;2023-07-28T14:46:45;29.10;42.50
68217;DHT22;55037;52.354;4.992;2023-07-28T14:49:13;28.60;43.90
68217;DHT22;55037;52.354;4.992;2023-07-28T14:51:41;28.40;44.90
68217;DHT22;55037;52.354;4.992;2023-07-28T14:54:08;28.30;45.70
68217;DHT22;55037;52.354;4.992;2023-07-28T14:56:36;28.00;45.70
68217;DHT22;55037;52.354;4.992;2023-07-28T14:59:03;27.60;46.50
68217;DHT22;55037;52.354;4.992;2023-07-28T15:01:31;27.10;48.00
68217;DHT22;55037;52.354;4.992;2023-07-28T15:04:00;26.80;49.10
68217;DHT22;55037;52.354;4.992;2023-07-28T15:06:30;26.60;50.30
68217;DHT22;55037;52.354;4.992;2023-07-28T15:08:58;26.50;51.20
68217;DHT22;55037;52.354;4.992;2023-07-28T15:11:25;26.50;51.90
68217;DHT22;55037;52.354;4.992;2023-07-28T15:13:53;26.60;51.90
68217;DHT22;55037;52.354;4.992;2023-07-28T15:16:21;26.60;52.50
68217;DHT22;55037;52.354;4.992;2023-07-28T15:18:48;26.70;53.20
68217;DHT22;55037;52.354;4.992;2023-07-28T15:21:15;26.80;53.10
68217;DHT22;55037;52.354;4.992;2023-07-28T15:23:45;27.10;52.60
68217;DHT22;55037;52.354;4.992;2023-07-28T15:26:12;27.10;52.60
68217;DHT22;55037;52.354;4.992;2023-07-28T15:28:39;27.30;52.50
68217;DHT22;55037;52.354;4.992;2023-07-28T15:31:07;27.40;52.00
68217;DHT22;55037;52.354;4.992;2023-07-28T15:33:34;27.40;51.30
68217;DHT22;55037;52.354;4.992;2023-07-28T15:36:01;27.30;51.40
68217;DHT22;55037;52.354;4.992;2023-07-28T15:38:29;27.20;51.70
68217;DHT22;55037;52.354;4.992;2023-07-28T15:40:56;27.00;52.10
68217;DHT22;55037;52.354;4.992;2023-07-28T15:43:25;26.70;52.80
68217;DHT22;55037;52.354;4.992;2023-07-28T15:45:52;26.40;54.30
68217;DHT22;55037;52.354;4.992;2023-07-28T15:48:22;26.20;55.10
68217;DHT22;55037;52.354;4.992;2023-07-28T15:50:49;25.90;56.40
68217;DHT22;55037;52.354;4.992;2023-07-28T15:53:18;25.70;57.70
68217;DHT22;55037;52.354;4.992;2023-07-28T15:55:46;25.40;58.90
68217;DHT22;55037;52.354;4.992;2023-07-28T15:58:13;24.90;61.10